sensor_id;sensor_type;location;lat;lon;timestamp;P1;durP1;ratioP1;P2;durP2;ratioP2
71914;SDS011;60387;49.994;14.660;2023-03-04T00:00:06;21.90;;;7.40;;
71914;SDS011;60387;49.994;14.660;2023-03-04T00:02:40;26.50;;;8.60;;
71914;SDS011;60387;49.994;14.660;2023-03-04T00:05:14;27.50;;;11.03;;
71914;SDS011;60387;49.994;14.660;2023-03-04T00:07:47;27.17;;;9.03;;
71914;SDS011;60387;49.994;14.660;2023-03-04T00:10:20;21.53;;;8.40;;
71914;SDS011;60387;49.994;14.660;2023-03-04T00:12:54;24.67;;;8.40;;
71914;SDS011;60387;49.994;14.660;2023-03-04T00:15:27;24.33;;;8.63;;
71914;SDS011;60387;49.994;14.660;2023-03-04T00:18:00;25.33;;;8.50;;
71914;SDS011;60387;49.994;14.660;2023-03-04T00:20:34;33.28;;;10.48;;
71914;SDS011;60387;49.994;14.660;2023-03-04T00:23:08;29.70;;;10.07;;
71914;SDS011;60387;49.994;14.660;2023-03-04T00:25:41;24.17;;;8.17;;
71914;SDS011;60387;49.994;14.660;2023-03-04T00:28:14;22.02;;;7.72;;
71914;SDS011;60387;49.994;14.660;2023-03-04T00:30:48;20.23;;;6.77;;
71914;SDS011;60387;49.994;14.660;2023-03-04T00:33:21;27.47;;;8.40;;
71914;SDS011;60387;49.994;14.660;2023-03-04T00:35:54;21.73;;;7.50;;
71914;SDS011;60387;49.994;14.660;2023-03-04T00:38:28;26.73;;;8.97;;
71914;SDS011;60387;49.994;14.660;2023-03-04T00:41:01;26.40;;;8.47;;
71914;SDS011;60387;49.994;14.660;2023-03-04T00:43:35;25.77;;;7.80;;
71914;SDS011;60387;49.994;14.660;2023-03-04T00:46:08;24.77;;;7.87;;
71914;SDS011;60387;49.994;14.660;2023-03-04T00:48:41;33.60;;;9.13;;
71914;SDS011;60387;49.994;14.660;2023-03-04T00:51:15;23.73;;;8.10;;
71914;SDS011;60387;49.994;14.660;2023-03-04T00:53:48;26.57;;;10.17;;
71914;SDS011;60387;49.994;14.660;2023-03-04T00:56:21;28.03;;;9.27;;
71914;SDS011;60387;49.994;14.660;2023-03-04T00:58:55;24.03;;;9.40;;
71914;SDS011;60387;49.994;14.660;2023-03-04T01:01:28;28.23;;;8.83;;
71914;SDS011;60387;49.994;14.660;2023-03-04T01:04:02;29.57;;;9.33;;
71914;SDS011;60387;49.994;14.660;2023-03-04T01:06:35;29.27;;;8.35;;
71914;SDS011;60387;49.994;14.660;2023-03-04T01:09:08;28.23;;;9.03;;
71914;SDS011;60387;49.994;14.660;2023-03-04T01:11:42;29.97;;;7.83;;
71914;SDS011;60387;49.994;14.660;2023-03-04T01:14:15;26.63;;;8.30;;
71914;SDS011;60387;49.994;14.660;2023-03-04T01:16:48;24.77;;;8.13;;
71914;SDS011;60387;49.994;14.660;2023-03-04T01:19:22;23.47;;;8.93;;
71914;SDS011;60387;49.994;14.660;2023-03-04T01:21:55;28.90;;;9.23;;
71914;SDS011;60387;49.994;14.660;2023-03-04T01:24:29;27.53;;;8.73;;
71914;SDS011;60387;49.994;14.660;2023-03-04T01:27:02;28.13;;;8.90;;
71914;SDS011;60387;49.994;14.660;2023-03-04T01:29:35;29.43;;;8.40;;
71914;SDS011;60387;49.994;14.660;2023-03-04T01:32:09;30.80;;;9.87;;
71914;SDS011;60387;49.994;14.660;2023-03-04T01:34:42;27.20;;;8.33;;
71914;SDS011;60387;49.994;14.660;2023-03-04T01:37:15;25.23;;;8.17;;
71914;SDS011;60387;49.994;14.660;2023-03-04T01:39:49;25.73;;;8.70;;
71914;SDS011;60387;49.994;14.660;2023-03-04T01:42:22;27.07;;;8.43;;
71914;SDS011;60387;49.994;14.660;2023-03-04T01:44:58;25.13;;;8.63;;
71914;SDS011;60387;49.994;14.660;2023-03-04T01:47:32;28.87;;;8.87;;
71914;SDS011;60387;49.994;14.660;2023-03-04T01:50:10;29.75;;;9.82;;
71914;SDS011;60387;49.994;14.660;2023-03-04T01:52:49;30.88;;;8.70;;
71914;SDS011;60387;49.994;14.660;2023-03-04T01:55:23;27.10;;;7.87;;
71914;SDS011;60387;49.994;14.660;2023-03-04T01:57:56;27.23;;;8.20;;
71914;SDS011;60387;49.994;14.660;2023-03-04T02:00:30;23.80;;;7.57;;
71914;SDS011;60387;49.994;14.660;2023-03-04T02:03:07;30.17;;;9.07;;
71914;SDS011;60387;49.994;14.660;2023-03-04T02:05:43;32.67;;;8.95;;
71914;SDS011;60387;49.994;14.660;2023-03-04T02:08:19;25.83;;;8.57;;
71914;SDS011;60387;49.994;14.660;2023-03-04T02:10:54;29.87;;;9.30;;
71914;SDS011;60387;49.994;14.660;2023-03-04T02:13:28;31.17;;;9.82;;
71914;SDS011;60387;49.994;14.660;2023-03-04T02:16:01;31.27;;;9.17;;
71914;SDS011;60387;49.994;14.660;2023-03-04T02:18:35;27.37;;;8.93;;
71914;SDS011;60387;49.994;14.660;2023-03-04T02:21:27;29.17;;;8.87;;
71914;SDS011;60387;49.994;14.660;2023-03-04T02:24:21;28.70;;;8.98;;
71914;SDS011;60387;49.994;14.660;2023-03-04T02:27:01;30.75;;;9.38;;
71914;SDS011;60387;49.994;14.660;2023-03-04T02:29:34;32.27;;;9.47;;
71914;SDS011;60387;49.994;14.660;2023-03-04T02:32:09;27.37;;;7.77;;
71914;SDS011;60387;49.994;14.660;2023-03-04T02:34:45;28.90;;;8.77;;
71914;SDS011;60387;49.994;14.660;2023-03-04T02:37:20;28.73;;;8.50;;
71914;SDS011;60387;49.994;14.660;2023-03-04T02:39:54;29.63;;;8.67;;
71914;SDS011;60387;49.994;14.660;2023-03-04T02:42:27;32.63;;;9.77;;
71914;SDS011;60387;49.994;14.660;2023-03-04T02:45:00;27.33;;;9.00;;
71914;SDS011;60387;49.994;14.660;2023-03-04T02:47:34;28.80;;;8.77;;
71914;SDS011;60387;49.994;14.660;2023-03-04T02:50:07;27.50;;;8.97;;
71914;SDS011;60387;49.994;14.660;2023-03-04T02:52:41;30.60;;;8.60;;
71914;SDS011;60387;49.994;14.660;2023-03-04T02:55:14;29.40;;;9.27;;
71914;SDS011;60387;49.994;14.660;2023-03-04T02:57:48;25.33;;;8.77;;
71914;SDS011;60387;49.994;14.660;2023-03-04T03:00:21;29.20;;;10.13;;
71914;SDS011;60387;49.994;14.660;2023-03-04T03:02:55;29.87;;;9.03;;
71914;SDS011;60387;49.994;14.660;2023-03-04T03:05:29;26.83;;;8.23;;
71914;SDS011;60387;49.994;14.660;2023-03-04T03:08:04;28.98;;;9.30;;
71914;SDS011;60387;49.994;14.660;2023-03-04T03:10:37;28.17;;;8.47;;
71914;SDS011;60387;49.994;14.660;2023-03-04T03:13:11;36.67;;;9.97;;
71914;SDS011;60387;49.994;14.660;2023-03-04T03:15:44;35.00;;;9.75;;
71914;SDS011;60387;49.994;14.660;2023-03-04T03:18:17;32.43;;;9.87;;
71914;SDS011;60387;49.994;14.660;2023-03-04T03:20:51;29.80;;;9.43;;
71914;SDS011;60387;49.994;14.660;2023-03-04T03:23:24;32.20;;;10.00;;
71914;SDS011;60387;49.994;14.660;2023-03-04T03:25:57;30.90;;;9.10;;
71914;SDS011;60387;49.994;14.660;2023-03-04T03:28:31;34.07;;;9.23;;
71914;SDS011;60387;49.994;14.660;2023-03-04T03:31:04;34.72;;;9.82;;
71914;SDS011;60387;49.994;14.660;2023-03-04T03:33:38;33.73;;;9.00;;
71914;SDS011;60387;49.994;14.660;2023-03-04T03:36:11;35.40;;;9.40;;
71914;SDS011;60387;49.994;14.660;2023-03-04T03:38:44;32.50;;;8.83;;
71914;SDS011;60387;49.994;14.660;2023-03-04T03:41:18;29.80;;;8.03;;
71914;SDS011;60387;49.994;14.660;2023-03-04T03:43:51;25.53;;;7.80;;
71914;SDS011;60387;49.994;14.660;2023-03-04T03:46:24;29.57;;;7.70;;
71914;SDS011;60387;49.994;14.660;2023-03-04T03:48:58;32.87;;;9.50;;
71914;SDS011;60387;49.994;14.660;2023-03-04T03:51:31;33.50;;;9.50;;
71914;SDS011;60387;49.994;14.660;2023-03-04T03:54:04;33.60;;;9.00;;
71914;SDS011;60387;49.994;14.660;2023-03-04T03:56:37;33.37;;;9.37;;
71914;SDS011;60387;49.994;14.660;2023-03-04T03:59:11;29.48;;;8.75;;
71914;SDS011;60387;49.994;14.660;2023-03-04T04:01:44;33.40;;;9.90;;
71914;SDS011;60387;49.994;14.660;2023-03-04T04:04:18;33.90;;;8.53;;
71914;SDS011;60387;49.994;14.660;2023-03-04T04:06:51;30.77;;;9.57;;
71914;SDS011;60387;49.994;14.660;2023-03-04T04:09:24;29.80;;;9.43;;
71914;SDS011;60387;49.994;14.660;2023-03-04T04:11:57;35.00;;;10.00;;
71914;SDS011;60387;49.994;14.660;2023-03-04T04:14:31;33.97;;;10.83;;
71914;SDS011;60387;49.994;14.660;2023-03-04T04:17:04;38.57;;;10.70;;
71914;SDS011;60387;49.994;14.660;2023-03-04T04:19:38;34.55;;;11.18;;
71914;SDS011;60387;49.994;14.660;2023-03-04T04:22:13;37.80;;;9.85;;
71914;SDS011;60387;49.994;14.660;2023-03-04T04:24:48;33.78;;;10.40;;
71914;SDS011;60387;49.994;14.660;2023-03-04T04:27:22;31.73;;;8.93;;
71914;SDS011;60387;49.994;14.660;2023-03-04T04:29:55;32.63;;;9.53;;
71914;SDS011;60387;49.994;14.660;2023-03-04T04:32:28;29.83;;;9.83;;
71914;SDS011;60387;49.994;14.660;2023-03-04T04:35:01;37.80;;;10.60;;
71914;SDS011;60387;49.994;14.660;2023-03-04T04:37:35;36.55;;;11.02;;
71914;SDS011;60387;49.994;14.660;2023-03-04T04:40:08;34.07;;;10.17;;
71914;SDS011;60387;49.994;14.660;2023-03-04T04:42:42;30.73;;;10.47;;
71914;SDS011;60387;49.994;14.660;2023-03-04T04:45:16;29.93;;;9.60;;
71914;SDS011;60387;49.994;14.660;2023-03-04T04:47:53;28.08;;;8.90;;
71914;SDS011;60387;49.994;14.660;2023-03-04T04:50:27;29.92;;;10.32;;
71914;SDS011;60387;49.994;14.660;2023-03-04T04:53:00;24.83;;;9.60;;
71914;SDS011;60387;49.994;14.660;2023-03-04T04:55:33;27.37;;;9.33;;
71914;SDS011;60387;49.994;14.660;2023-03-04T04:58:07;24.77;;;8.57;;
71914;SDS011;60387;49.994;14.660;2023-03-04T05:00:40;28.80;;;9.47;;
71914;SDS011;60387;49.994;14.660;2023-03-04T05:03:13;32.37;;;11.30;;
71914;SDS011;60387;49.994;14.660;2023-03-04T05:05:47;27.77;;;10.20;;
71914;SDS011;60387;49.994;14.660;2023-03-04T05:08:20;31.67;;;10.37;;
71914;SDS011;60387;49.994;14.660;2023-03-04T05:10:54;31.38;;;9.88;;
71914;SDS011;60387;49.994;14.660;2023-03-04T05:13:27;34.90;;;10.60;;
71914;SDS011;60387;49.994;14.660;2023-03-04T05:16:00;26.00;;;9.37;;
71914;SDS011;60387;49.994;14.660;2023-03-04T05:18:34;25.50;;;9.43;;
71914;SDS011;60387;49.994;14.660;2023-03-04T05:21:07;26.43;;;9.43;;
71914;SDS011;60387;49.994;14.660;2023-03-04T05:23:41;24.60;;;9.75;;
71914;SDS011;60387;49.994;14.660;2023-03-04T05:26:16;24.48;;;8.68;;
71914;SDS011;60387;49.994;14.660;2023-03-04T05:28:50;28.10;;;9.33;;
71914;SDS011;60387;49.994;14.660;2023-03-04T05:31:23;34.23;;;10.33;;
71914;SDS011;60387;49.994;14.660;2023-03-04T05:33:56;27.85;;;8.82;;
71914;SDS011;60387;49.994;14.660;2023-03-04T05:36:29;26.35;;;9.77;;
71914;SDS011;60387;49.994;14.660;2023-03-04T05:39:03;25.35;;;8.77;;
71914;SDS011;60387;49.994;14.660;2023-03-04T05:41:36;26.35;;;9.32;;
71914;SDS011;60387;49.994;14.660;2023-03-04T05:44:09;29.80;;;9.93;;
71914;SDS011;60387;49.994;14.660;2023-03-04T05:46:43;27.80;;;9.73;;
71914;SDS011;60387;49.994;14.660;2023-03-04T05:49:16;30.00;;;10.23;;
71914;SDS011;60387;49.994;14.660;2023-03-04T05:51:49;28.73;;;8.57;;
71914;SDS011;60387;49.994;14.660;2023-03-04T05:54:22;29.63;;;8.87;;
71914;SDS011;60387;49.994;14.660;2023-03-04T05:56:56;25.50;;;8.43;;
71914;SDS011;60387;49.994;14.660;2023-03-04T05:59:29;27.03;;;10.30;;
71914;SDS011;60387;49.994;14.660;2023-03-04T06:02:02;32.93;;;9.60;;
71914;SDS011;60387;49.994;14.660;2023-03-04T06:04:36;28.90;;;9.77;;
71914;SDS011;60387;49.994;14.660;2023-03-04T06:07:09;29.63;;;9.17;;
71914;SDS011;60387;49.994;14.660;2023-03-04T06:09:42;32.73;;;9.43;;
71914;SDS011;60387;49.994;14.660;2023-03-04T06:12:16;33.40;;;9.73;;
71914;SDS011;60387;49.994;14.660;2023-03-04T06:14:49;27.10;;;8.67;;
71914;SDS011;60387;49.994;14.660;2023-03-04T06:17:22;25.95;;;9.40;;
71914;SDS011;60387;49.994;14.660;2023-03-04T06:19:56;22.60;;;8.03;;
71914;SDS011;60387;49.994;14.660;2023-03-04T06:22:29;30.97;;;8.87;;
71914;SDS011;60387;49.994;14.660;2023-03-04T06:25:02;24.20;;;9.03;;
71914;SDS011;60387;49.994;14.660;2023-03-04T06:27:36;26.65;;;9.75;;
71914;SDS011;60387;49.994;14.660;2023-03-04T06:30:10;28.07;;;8.07;;
71914;SDS011;60387;49.994;14.660;2023-03-04T06:32:44;28.07;;;7.73;;
71914;SDS011;60387;49.994;14.660;2023-03-04T06:35:17;24.42;;;8.55;;
71914;SDS011;60387;49.994;14.660;2023-03-04T06:37:50;23.23;;;8.67;;
71914;SDS011;60387;49.994;14.660;2023-03-04T06:40:24;26.77;;;8.03;;
71914;SDS011;60387;49.994;14.660;2023-03-04T06:42:57;22.37;;;8.63;;
71914;SDS011;60387;49.994;14.660;2023-03-04T06:45:30;25.80;;;8.50;;
71914;SDS011;60387;49.994;14.660;2023-03-04T06:48:04;29.60;;;8.73;;
71914;SDS011;60387;49.994;14.660;2023-03-04T06:50:40;26.17;;;7.85;;
71914;SDS011;60387;49.994;14.660;2023-03-04T06:53:13;28.30;;;8.73;;
71914;SDS011;60387;49.994;14.660;2023-03-04T06:55:47;28.40;;;8.53;;
71914;SDS011;60387;49.994;14.660;2023-03-04T06:58:20;25.33;;;9.07;;
71914;SDS011;60387;49.994;14.660;2023-03-04T07:00:53;27.27;;;7.87;;
71914;SDS011;60387;49.994;14.660;2023-03-04T07:03:27;22.73;;;8.07;;
71914;SDS011;60387;49.994;14.660;2023-03-04T07:06:00;25.30;;;7.73;;
71914;SDS011;60387;49.994;14.660;2023-03-04T07:08:33;27.10;;;7.70;;
71914;SDS011;60387;49.994;14.660;2023-03-04T07:11:07;26.20;;;9.13;;
71914;SDS011;60387;49.994;14.660;2023-03-04T07:13:40;22.90;;;8.07;;
71914;SDS011;60387;49.994;14.660;2023-03-04T07:16:15;26.55;;;8.48;;
71914;SDS011;60387;49.994;14.660;2023-03-04T07:18:50;24.43;;;7.47;;
71914;SDS011;60387;49.994;14.660;2023-03-04T07:21:23;29.45;;;9.60;;
71914;SDS011;60387;49.994;14.660;2023-03-04T07:23:56;30.57;;;8.97;;
71914;SDS011;60387;49.994;14.660;2023-03-04T07:26:30;27.60;;;9.63;;
71914;SDS011;60387;49.994;14.660;2023-03-04T07:29:03;22.97;;;7.97;;
71914;SDS011;60387;49.994;14.660;2023-03-04T07:31:37;28.98;;;9.48;;
71914;SDS011;60387;49.994;14.660;2023-03-04T07:34:12;21.57;;;6.63;;
71914;SDS011;60387;49.994;14.660;2023-03-04T07:36:46;18.77;;;6.00;;
71914;SDS011;60387;49.994;14.660;2023-03-04T07:39:19;15.60;;;5.77;;
71914;SDS011;60387;49.994;14.660;2023-03-04T07:41:53;21.03;;;7.13;;
71914;SDS011;60387;49.994;14.660;2023-03-04T07:44:26;22.23;;;6.80;;
71914;SDS011;60387;49.994;14.660;2023-03-04T07:46:59;21.40;;;6.07;;
71914;SDS011;60387;49.994;14.660;2023-03-04T07:49:33;24.80;;;6.93;;
71914;SDS011;60387;49.994;14.660;2023-03-04T07:52:06;22.33;;;7.83;;
71914;SDS011;60387;49.994;14.660;2023-03-04T07:54:39;21.93;;;6.97;;
71914;SDS011;60387;49.994;14.660;2023-03-04T07:57:13;20.50;;;6.78;;
71914;SDS011;60387;49.994;14.660;2023-03-04T07:59:46;24.10;;;6.87;;
71914;SDS011;60387;49.994;14.660;2023-03-04T08:02:19;23.03;;;6.83;;
71914;SDS011;60387;49.994;14.660;2023-03-04T08:04:53;20.30;;;6.57;;
71914;SDS011;60387;49.994;14.660;2023-03-04T08:07:26;22.77;;;6.37;;
71914;SDS011;60387;49.994;14.660;2023-03-04T08:09:59;20.30;;;6.00;;
71914;SDS011;60387;49.994;14.660;2023-03-04T08:12:33;19.63;;;5.77;;
71914;SDS011;60387;49.994;14.660;2023-03-04T08:15:07;18.77;;;5.68;;
71914;SDS011;60387;49.994;14.660;2023-03-04T08:17:41;16.30;;;5.23;;
71914;SDS011;60387;49.994;14.660;2023-03-04T08:20:14;20.30;;;6.43;;
71914;SDS011;60387;49.994;14.660;2023-03-04T08:22:47;22.93;;;5.50;;
71914;SDS011;60387;49.994;14.660;2023-03-04T08:25:21;19.83;;;6.50;;
71914;SDS011;60387;49.994;14.660;2023-03-04T08:27:54;16.63;;;5.47;;
71914;SDS011;60387;49.994;14.660;2023-03-04T08:30:27;19.23;;;6.87;;
71914;SDS011;60387;49.994;14.660;2023-03-04T08:33:01;19.97;;;5.97;;
71914;SDS011;60387;49.994;14.660;2023-03-04T08:35:36;18.35;;;5.20;;
71914;SDS011;60387;49.994;14.660;2023-03-04T08:38:11;23.98;;;6.53;;
71914;SDS011;60387;49.994;14.660;2023-03-04T08:40:44;20.57;;;6.30;;
71914;SDS011;60387;49.994;14.660;2023-03-04T08:43:17;17.73;;;6.17;;
71914;SDS011;60387;49.994;14.660;2023-03-04T08:45:51;20.57;;;6.50;;
71914;SDS011;60387;49.994;14.660;2023-03-04T08:48:25;15.82;;;5.47;;
71914;SDS011;60387;49.994;14.660;2023-03-04T08:50:59;18.57;;;5.30;;
71914;SDS011;60387;49.994;14.660;2023-03-04T08:53:32;17.73;;;5.63;;
71914;SDS011;60387;49.994;14.660;2023-03-04T08:56:06;17.60;;;5.73;;
71914;SDS011;60387;49.994;14.660;2023-03-04T08:58:39;19.65;;;5.80;;
71914;SDS011;60387;49.994;14.660;2023-03-04T09:01:13;21.93;;;5.77;;
71914;SDS011;60387;49.994;14.660;2023-03-04T09:03:47;21.92;;;6.60;;
71914;SDS011;60387;49.994;14.660;2023-03-04T09:06:20;17.53;;;5.40;;
71914;SDS011;60387;49.994;14.660;2023-03-04T09:08:53;20.80;;;6.43;;
71914;SDS011;60387;49.994;14.660;2023-03-04T09:11:26;18.17;;;5.83;;
71914;SDS011;60387;49.994;14.660;2023-03-04T09:14:00;17.17;;;5.80;;
71914;SDS011;60387;49.994;14.660;2023-03-04T09:16:33;16.73;;;6.33;;
71914;SDS011;60387;49.994;14.660;2023-03-04T09:19:06;23.63;;;6.57;;
71914;SDS011;60387;49.994;14.660;2023-03-04T09:21:40;20.70;;;7.27;;
71914;SDS011;60387;49.994;14.660;2023-03-04T09:24:13;18.80;;;6.40;;
71914;SDS011;60387;49.994;14.660;2023-03-04T09:26:50;20.60;;;6.85;;
71914;SDS011;60387;49.994;14.660;2023-03-04T09:29:24;17.02;;;6.72;;
71914;SDS011;60387;49.994;14.660;2023-03-04T09:31:57;18.30;;;6.93;;
71914;SDS011;60387;49.994;14.660;2023-03-04T09:34:31;20.87;;;6.73;;
71914;SDS011;60387;49.994;14.660;2023-03-04T09:37:04;21.38;;;7.05;;
71914;SDS011;60387;49.994;14.660;2023-03-04T09:39:37;20.65;;;7.72;;
71914;SDS011;60387;49.994;14.660;2023-03-04T09:42:13;20.25;;;6.30;;
71914;SDS011;60387;49.994;14.660;2023-03-04T09:44:56;19.88;;;7.18;;
71914;SDS011;60387;49.994;14.660;2023-03-04T09:47:32;21.73;;;6.75;;
71914;SDS011;60387;49.994;14.660;2023-03-04T09:50:10;26.92;;;10.13;;
71914;SDS011;60387;49.994;14.660;2023-03-04T09:55:34;37.77;;;15.73;;
71914;SDS011;60387;49.994;14.660;2023-03-04T10:00:57;24.55;;;8.40;;
71914;SDS011;60387;49.994;14.660;2023-03-04T10:06:25;22.52;;;6.50;;
71914;SDS011;60387;49.994;14.660;2023-03-04T10:12:06;18.73;;;5.93;;
71914;SDS011;60387;49.994;14.660;2023-03-04T10:14:47;18.85;;;6.25;;
71914;SDS011;60387;49.994;14.660;2023-03-04T10:17:39;18.83;;;6.55;;
71914;SDS011;60387;49.994;14.660;2023-03-04T10:20:18;17.13;;;5.80;;
71914;SDS011;60387;49.994;14.660;2023-03-04T10:22:59;16.92;;;5.50;;
71914;SDS011;60387;49.994;14.660;2023-03-04T10:25:42;24.70;;;8.20;;
71914;SDS011;60387;49.994;14.660;2023-03-04T10:28:18;23.92;;;8.45;;
71914;SDS011;60387;49.994;14.660;2023-03-04T10:33:41;18.33;;;5.73;;
71914;SDS011;60387;49.994;14.660;2023-03-04T10:39:16;16.23;;;5.32;;
71914;SDS011;60387;49.994;14.660;2023-03-04T10:42:03;15.07;;;5.43;;
71914;SDS011;60387;49.994;14.660;2023-03-04T10:44:37;15.23;;;5.38;;
71914;SDS011;60387;49.994;14.660;2023-03-04T10:47:15;19.00;;;5.40;;
71914;SDS011;60387;49.994;14.660;2023-03-04T10:49:52;12.97;;;4.83;;
71914;SDS011;60387;49.994;14.660;2023-03-04T10:55:17;18.90;;;5.72;;
71914;SDS011;60387;49.994;14.660;2023-03-04T10:57:55;17.07;;;6.47;;
71914;SDS011;60387;49.994;14.660;2023-03-04T11:00:37;15.15;;;5.75;;
71914;SDS011;60387;49.994;14.660;2023-03-04T11:03:27;14.52;;;5.95;;
71914;SDS011;60387;49.994;14.660;2023-03-04T11:06:15;17.95;;;6.32;;
71914;SDS011;60387;49.994;14.660;2023-03-04T11:08:56;12.70;;;4.45;;
71914;SDS011;60387;49.994;14.660;2023-03-04T11:11:37;19.17;;;5.63;;
71914;SDS011;60387;49.994;14.660;2023-03-04T11:17:15;14.43;;;5.50;;
71914;SDS011;60387;49.994;14.660;2023-03-04T11:20:13;17.83;;;6.75;;
71914;SDS011;60387;49.994;14.660;2023-03-04T11:23:03;15.93;;;6.63;;
71914;SDS011;60387;49.994;14.660;2023-03-04T11:25:43;16.63;;;6.27;;
71914;SDS011;60387;49.994;14.660;2023-03-04T11:28:21;19.88;;;7.50;;
71914;SDS011;60387;49.994;14.660;2023-03-04T11:31:05;16.33;;;6.13;;
71914;SDS011;60387;49.994;14.660;2023-03-04T11:45:08;13.40;;;4.50;;
71914;SDS011;60387;49.994;14.660;2023-03-04T11:51:35;12.75;;;4.03;;
71914;SDS011;60387;49.994;14.660;2023-03-04T11:56:58;13.27;;;4.78;;
71914;SDS011;60387;49.994;14.660;2023-03-04T12:02:23;16.10;;;5.03;;
71914;SDS011;60387;49.994;14.660;2023-03-04T12:05:14;13.02;;;4.18;;
71914;SDS011;60387;49.994;14.660;2023-03-04T12:15:48;12.70;;;4.53;;
71914;SDS011;60387;49.994;14.660;2023-03-04T12:27:54;14.90;;;4.68;;
71914;SDS011;60387;49.994;14.660;2023-03-04T12:39:39;14.77;;;5.03;;
71914;SDS011;60387;49.994;14.660;2023-03-04T12:45:39;17.80;;;7.38;;
71914;SDS011;60387;49.994;14.660;2023-03-04T12:55:53;18.35;;;8.27;;
71914;SDS011;60387;49.994;14.660;2023-03-04T12:58:31;17.50;;;6.20;;
71914;SDS011;60387;49.994;14.660;2023-03-04T13:03:43;13.90;;;5.10;;
71914;SDS011;60387;49.994;14.660;2023-03-04T13:06:30;13.98;;;5.47;;
71914;SDS011;60387;49.994;14.660;2023-03-04T13:15:31;13.75;;;4.80;;
71914;SDS011;60387;49.994;14.660;2023-03-04T13:28:29;15.48;;;4.63;;
71914;SDS011;60387;49.994;14.660;2023-03-04T13:31:15;14.35;;;4.85;;
71914;SDS011;60387;49.994;14.660;2023-03-04T13:33:51;14.02;;;4.47;;
71914;SDS011;60387;49.994;14.660;2023-03-04T13:36:30;15.48;;;4.70;;
71914;SDS011;60387;49.994;14.660;2023-03-04T13:39:25;13.30;;;5.07;;
71914;SDS011;60387;49.994;14.660;2023-03-04T13:41:59;13.50;;;5.43;;
71914;SDS011;60387;49.994;14.660;2023-03-04T13:47:17;18.23;;;5.88;;
71914;SDS011;60387;49.994;14.660;2023-03-04T13:53:20;28.83;;;10.73;;
71914;SDS011;60387;49.994;14.660;2023-03-04T13:56:01;31.17;;;10.53;;
71914;SDS011;60387;49.994;14.660;2023-03-04T13:58:38;25.27;;;9.38;;
71914;SDS011;60387;49.994;14.660;2023-03-04T14:01:21;21.27;;;7.20;;
71914;SDS011;60387;49.994;14.660;2023-03-04T14:03:58;19.10;;;5.93;;
71914;SDS011;60387;49.994;14.660;2023-03-04T14:06:33;17.73;;;6.20;;
71914;SDS011;60387;49.994;14.660;2023-03-04T14:09:13;16.33;;;5.20;;
71914;SDS011;60387;49.994;14.660;2023-03-04T14:11:48;20.95;;;5.65;;
71914;SDS011;60387;49.994;14.660;2023-03-04T14:14:31;17.37;;;5.93;;
71914;SDS011;60387;49.994;14.660;2023-03-04T14:17:19;17.00;;;6.28;;
71914;SDS011;60387;49.994;14.660;2023-03-04T14:19:55;24.27;;;8.80;;
71914;SDS011;60387;49.994;14.660;2023-03-04T14:22:31;19.98;;;5.43;;
71914;SDS011;60387;49.994;14.660;2023-03-04T14:25:14;19.77;;;5.00;;
71914;SDS011;60387;49.994;14.660;2023-03-04T14:30:53;20.75;;;5.97;;
71914;SDS011;60387;49.994;14.660;2023-03-04T14:33:28;17.17;;;4.80;;
71914;SDS011;60387;49.994;14.660;2023-03-04T14:36:03;14.98;;;4.40;;
71914;SDS011;60387;49.994;14.660;2023-03-04T14:38:36;16.80;;;5.23;;
71914;SDS011;60387;49.994;14.660;2023-03-04T14:41:14;12.80;;;4.30;;
71914;SDS011;60387;49.994;14.660;2023-03-04T14:46:34;13.60;;;4.00;;
71914;SDS011;60387;49.994;14.660;2023-03-04T14:49:14;9.00;;;3.03;;
71914;SDS011;60387;49.994;14.660;2023-03-04T14:51:49;8.52;;;3.33;;
71914;SDS011;60387;49.994;14.660;2023-03-04T14:54:36;12.20;;;3.50;;
71914;SDS011;60387;49.994;14.660;2023-03-04T14:57:21;9.53;;;3.00;;
71914;SDS011;60387;49.994;14.660;2023-03-04T15:00:06;25.48;;;7.65;;
71914;SDS011;60387;49.994;14.660;2023-03-04T15:02:47;67.38;;;19.98;;
71914;SDS011;60387;49.994;14.660;2023-03-04T15:05:24;14.23;;;4.90;;
71914;SDS011;60387;49.994;14.660;2023-03-04T15:10:36;14.47;;;5.80;;
71914;SDS011;60387;49.994;14.660;2023-03-04T15:13:10;12.35;;;3.70;;
71914;SDS011;60387;49.994;14.660;2023-03-04T15:15:45;11.57;;;3.27;;
71914;SDS011;60387;49.994;14.660;2023-03-04T15:21:03;12.73;;;4.43;;
71914;SDS011;60387;49.994;14.660;2023-03-04T15:23:51;13.52;;;4.45;;
71914;SDS011;60387;49.994;14.660;2023-03-04T15:26:24;19.93;;;5.77;;
71914;SDS011;60387;49.994;14.660;2023-03-04T15:28:58;16.60;;;6.23;;
71914;SDS011;60387;49.994;14.660;2023-03-04T15:31:31;24.73;;;7.88;;
71914;SDS011;60387;49.994;14.660;2023-03-04T15:34:09;14.00;;;5.53;;
71914;SDS011;60387;49.994;14.660;2023-03-04T15:36:45;26.02;;;10.52;;
71914;SDS011;60387;49.994;14.660;2023-03-04T15:39:21;23.13;;;7.53;;
71914;SDS011;60387;49.994;14.660;2023-03-04T15:41:54;19.20;;;6.87;;
71914;SDS011;60387;49.994;14.660;2023-03-04T15:44:27;30.07;;;10.87;;
71914;SDS011;60387;49.994;14.660;2023-03-04T15:47:01;31.33;;;12.00;;
71914;SDS011;60387;49.994;14.660;2023-03-04T15:49:34;19.87;;;7.30;;
71914;SDS011;60387;49.994;14.660;2023-03-04T15:52:18;16.47;;;6.17;;
71914;SDS011;60387;49.994;14.660;2023-03-04T15:54:53;19.52;;;7.55;;
71914;SDS011;60387;49.994;14.660;2023-03-04T15:57:26;17.67;;;6.43;;
71914;SDS011;60387;49.994;14.660;2023-03-04T16:00:00;13.43;;;4.80;;
71914;SDS011;60387;49.994;14.660;2023-03-04T16:02:33;14.90;;;5.60;;
71914;SDS011;60387;49.994;14.660;2023-03-04T16:05:07;13.77;;;4.67;;
71914;SDS011;60387;49.994;14.660;2023-03-04T16:07:41;16.73;;;4.38;;
71914;SDS011;60387;49.994;14.660;2023-03-04T16:10:20;10.93;;;3.80;;
71914;SDS011;60387;49.994;14.660;2023-03-04T16:12:56;15.70;;;4.07;;
71914;SDS011;60387;49.994;14.660;2023-03-04T16:15:30;13.80;;;3.83;;
71914;SDS011;60387;49.994;14.660;2023-03-04T16:18:04;14.07;;;4.30;;
71914;SDS011;60387;49.994;14.660;2023-03-04T16:20:37;14.03;;;4.03;;
71914;SDS011;60387;49.994;14.660;2023-03-04T16:23:13;13.63;;;3.63;;
71914;SDS011;60387;49.994;14.660;2023-03-04T16:25:52;12.23;;;4.35;;
71914;SDS011;60387;49.994;14.660;2023-03-04T16:28:27;11.18;;;3.50;;
71914;SDS011;60387;49.994;14.660;2023-03-04T16:31:00;10.67;;;3.60;;
71914;SDS011;60387;49.994;14.660;2023-03-04T16:33:34;18.20;;;4.97;;
71914;SDS011;60387;49.994;14.660;2023-03-04T16:36:14;17.60;;;4.90;;
71914;SDS011;60387;49.994;14.660;2023-03-04T16:38:50;13.88;;;4.28;;
71914;SDS011;60387;49.994;14.660;2023-03-04T16:41:26;12.23;;;3.60;;
71914;SDS011;60387;49.994;14.660;2023-03-04T16:44:01;13.98;;;4.03;;
71914;SDS011;60387;49.994;14.660;2023-03-04T16:46:34;12.50;;;3.55;;
71914;SDS011;60387;49.994;14.660;2023-03-04T16:49:08;12.93;;;3.78;;
71914;SDS011;60387;49.994;14.660;2023-03-04T16:51:45;10.90;;;3.80;;
71914;SDS011;60387;49.994;14.660;2023-03-04T16:54:23;12.07;;;4.15;;
71914;SDS011;60387;49.994;14.660;2023-03-04T16:57:01;11.85;;;3.88;;
71914;SDS011;60387;49.994;14.660;2023-03-04T16:59:34;15.37;;;4.10;;
71914;SDS011;60387;49.994;14.660;2023-03-04T17:04:48;18.40;;;7.47;;
71914;SDS011;60387;49.994;14.660;2023-03-04T17:07:22;16.67;;;5.57;;